sensor_id;sensor_type;location;lat;lon;timestamp;P1;durP1;ratioP1;P2;durP2;ratioP2
50086;SDS011;35967;50.718;7.050;2023-04-08T00:09:17;26.90;;;11.40;;
50086;SDS011;35967;50.718;7.050;2023-04-08T00:19:19;27.27;;;9.97;;
50086;SDS011;35967;50.718;7.050;2023-04-08T00:29:24;27.93;;;11.80;;
50086;SDS011;35967;50.718;7.050;2023-04-08T00:39:27;26.27;;;11.03;;
50086;SDS011;35967;50.718;7.050;2023-04-08T00:49:32;36.10;;;13.00;;
50086;SDS011;35967;50.718;7.050;2023-04-08T00:59:35;32.33;;;12.60;;
50086;SDS011;35967;50.718;7.050;2023-04-08T01:09:47;27.50;;;12.33;;
50086;SDS011;35967;50.718;7.050;2023-04-08T01:19:55;28.90;;;13.10;;
50086;SDS011;35967;50.718;7.050;2023-04-08T01:30:02;22.50;;;13.00;;
50086;SDS011;35967;50.718;7.050;2023-04-08T01:40:08;34.77;;;13.80;;
50086;SDS011;35967;50.718;7.050;2023-04-08T01:50:14;28.67;;;14.70;;
50086;SDS011;35967;50.718;7.050;2023-04-08T02:00:23;40.27;;;15.67;;
50086;SDS011;35967;50.718;7.050;2023-04-08T02:10:30;40.47;;;16.73;;
50086;SDS011;35967;50.718;7.050;2023-04-08T02:20:36;38.00;;;16.77;;
50086;SDS011;35967;50.718;7.050;2023-04-08T02:30:42;37.70;;;18.07;;
50086;SDS011;35967;50.718;7.050;2023-04-08T02:50:54;47.73;;;19.50;;
50086;SDS011;35967;50.718;7.050;2023-04-08T03:00:58;38.03;;;18.57;;
50086;SDS011;35967;50.718;7.050;2023-04-08T03:11:02;51.93;;;20.67;;
50086;SDS011;35967;50.718;7.050;2023-04-08T03:21:05;46.70;;;21.33;;
50086;SDS011;35967;50.718;7.050;2023-04-08T03:31:10;50.53;;;21.27;;
50086;SDS011;35967;50.718;7.050;2023-04-08T03:41:13;49.83;;;22.50;;
50086;SDS011;35967;50.718;7.050;2023-04-08T03:51:18;51.30;;;23.13;;
50086;SDS011;35967;50.718;7.050;2023-04-08T04:01:21;53.37;;;23.50;;
50086;SDS011;35967;50.718;7.050;2023-04-08T04:11:26;58.60;;;24.00;;
50086;SDS011;35967;50.718;7.050;2023-04-08T04:21:29;59.83;;;24.30;;
50086;SDS011;35967;50.718;7.050;2023-04-08T04:31:33;59.10;;;24.70;;
50086;SDS011;35967;50.718;7.050;2023-04-08T04:41:36;59.60;;;25.77;;
50086;SDS011;35967;50.718;7.050;2023-04-08T04:51:42;60.77;;;25.23;;
50086;SDS011;35967;50.718;7.050;2023-04-08T05:01:45;63.27;;;27.17;;
50086;SDS011;35967;50.718;7.050;2023-04-08T05:11:50;53.67;;;24.30;;
50086;SDS011;35967;50.718;7.050;2023-04-08T05:21:53;76.43;;;28.73;;
50086;SDS011;35967;50.718;7.050;2023-04-08T05:31:57;66.93;;;27.23;;
50086;SDS011;35967;50.718;7.050;2023-04-08T05:42:01;67.73;;;29.10;;
50086;SDS011;35967;50.718;7.050;2023-04-08T05:52:06;68.17;;;29.10;;
50086;SDS011;35967;50.718;7.050;2023-04-08T06:02:09;62.40;;;27.43;;
50086;SDS011;35967;50.718;7.050;2023-04-08T06:12:13;77.50;;;28.73;;
50086;SDS011;35967;50.718;7.050;2023-04-08T06:22:17;81.93;;;30.30;;
50086;SDS011;35967;50.718;7.050;2023-04-08T06:32:21;70.13;;;28.80;;
50086;SDS011;35967;50.718;7.050;2023-04-08T06:42:24;64.10;;;27.10;;
50086;SDS011;35967;50.718;7.050;2023-04-08T06:52:41;66.50;;;29.23;;
50086;SDS011;35967;50.718;7.050;2023-04-08T07:02:44;75.13;;;29.20;;
50086;SDS011;35967;50.718;7.050;2023-04-08T07:12:49;76.80;;;29.43;;
50086;SDS011;35967;50.718;7.050;2023-04-08T07:22:53;75.13;;;32.30;;
50086;SDS011;35967;50.718;7.050;2023-04-08T07:32:57;76.13;;;29.63;;
50086;SDS011;35967;50.718;7.050;2023-04-08T07:43:01;70.13;;;30.10;;
50086;SDS011;35967;50.718;7.050;2023-04-08T07:53:06;66.90;;;28.93;;
50086;SDS011;35967;50.718;7.050;2023-04-08T08:03:09;57.00;;;26.90;;
50086;SDS011;35967;50.718;7.050;2023-04-08T08:13:13;50.70;;;25.03;;
50086;SDS011;35967;50.718;7.050;2023-04-08T08:23:19;51.30;;;25.20;;
50086;SDS011;35967;50.718;7.050;2023-04-08T08:33:23;54.73;;;26.77;;
50086;SDS011;35967;50.718;7.050;2023-04-08T08:43:27;52.17;;;28.00;;
50086;SDS011;35967;50.718;7.050;2023-04-08T08:53:35;53.43;;;28.03;;
50086;SDS011;35967;50.718;7.050;2023-04-08T09:03:39;52.63;;;27.30;;
50086;SDS011;35967;50.718;7.050;2023-04-08T09:13:43;54.83;;;28.87;;
50086;SDS011;35967;50.718;7.050;2023-04-08T09:23:48;58.77;;;31.90;;
50086;SDS011;35967;50.718;7.050;2023-04-08T09:33:55;57.07;;;30.10;;
50086;SDS011;35967;50.718;7.050;2023-04-08T09:43:59;52.37;;;28.53;;
50086;SDS011;35967;50.718;7.050;2023-04-08T09:54:09;53.87;;;29.63;;
50086;SDS011;35967;50.718;7.050;2023-04-08T10:04:17;53.93;;;28.63;;
50086;SDS011;35967;50.718;7.050;2023-04-08T10:14:24;49.60;;;30.17;;
50086;SDS011;35967;50.718;7.050;2023-04-08T10:24:29;49.97;;;28.77;;
50086;SDS011;35967;50.718;7.050;2023-04-08T10:34:33;48.13;;;28.43;;
50086;SDS011;35967;50.718;7.050;2023-04-08T10:44:37;46.53;;;26.27;;
50086;SDS011;35967;50.718;7.050;2023-04-08T10:54:48;41.10;;;24.23;;
50086;SDS011;35967;50.718;7.050;2023-04-08T11:04:52;39.87;;;23.50;;
50086;SDS011;35967;50.718;7.050;2023-04-08T11:14:57;43.40;;;23.57;;
50086;SDS011;35967;50.718;7.050;2023-04-08T11:25:01;45.77;;;24.80;;
50086;SDS011;35967;50.718;7.050;2023-04-08T11:35:06;47.63;;;25.13;;
50086;SDS011;35967;50.718;7.050;2023-04-08T11:45:10;53.90;;;27.30;;
50086;SDS011;35967;50.718;7.050;2023-04-08T11:55:22;58.87;;;27.20;;
50086;SDS011;35967;50.718;7.050;2023-04-08T12:05:26;64.47;;;29.90;;
50086;SDS011;35967;50.718;7.050;2023-04-08T12:15:31;52.60;;;24.23;;
50086;SDS011;35967;50.718;7.050;2023-04-08T12:25:34;53.00;;;25.80;;
50086;SDS011;35967;50.718;7.050;2023-04-08T12:35:39;48.87;;;23.60;;
50086;SDS011;35967;50.718;7.050;2023-04-08T12:45:43;54.53;;;26.33;;
50086;SDS011;35967;50.718;7.050;2023-04-08T12:55:47;50.80;;;26.13;;
50086;SDS011;35967;50.718;7.050;2023-04-08T13:05:50;47.03;;;23.67;;
50086;SDS011;35967;50.718;7.050;2023-04-08T13:15:55;39.80;;;22.53;;
50086;SDS011;35967;50.718;7.050;2023-04-08T13:25:58;39.50;;;25.43;;
50086;SDS011;35967;50.718;7.050;2023-04-08T13:36:03;44.00;;;26.93;;
50086;SDS011;35967;50.718;7.050;2023-04-08T13:46:07;43.77;;;24.37;;
50086;SDS011;35967;50.718;7.050;2023-04-08T13:56:12;50.37;;;25.90;;
50086;SDS011;35967;50.718;7.050;2023-04-08T14:06:15;51.00;;;26.13;;
50086;SDS011;35967;50.718;7.050;2023-04-08T14:16:20;50.57;;;25.80;;
50086;SDS011;35967;50.718;7.050;2023-04-08T14:26:28;52.87;;;24.70;;
50086;SDS011;35967;50.718;7.050;2023-04-08T14:36:33;51.30;;;25.13;;
50086;SDS011;35967;50.718;7.050;2023-04-08T14:46:36;44.23;;;23.50;;
50086;SDS011;35967;50.718;7.050;2023-04-08T14:56:41;46.07;;;21.47;;
50086;SDS011;35967;50.718;7.050;2023-04-08T15:06:44;42.07;;;18.93;;
50086;SDS011;35967;50.718;7.050;2023-04-08T15:16:49;42.70;;;21.30;;
50086;SDS011;35967;50.718;7.050;2023-04-08T15:26:52;35.10;;;20.17;;
50086;SDS011;35967;50.718;7.050;2023-04-08T15:36:58;37.40;;;17.80;;
50086;SDS011;35967;50.718;7.050;2023-04-08T15:47:02;30.33;;;15.40;;
50086;SDS011;35967;50.718;7.050;2023-04-08T15:57:07;36.77;;;19.20;;
50086;SDS011;35967;50.718;7.050;2023-04-08T16:07:10;24.43;;;13.17;;
50086;SDS011;35967;50.718;7.050;2023-04-08T16:17:15;15.27;;;8.57;;
50086;SDS011;35967;50.718;7.050;2023-04-08T16:27:18;12.17;;;6.40;;
50086;SDS011;35967;50.718;7.050;2023-04-08T16:37:26;12.90;;;6.37;;
50086;SDS011;35967;50.718;7.050;2023-04-08T16:47:29;23.60;;;11.60;;
50086;SDS011;35967;50.718;7.050;2023-04-08T16:57:33;12.83;;;6.43;;
50086;SDS011;35967;50.718;7.050;2023-04-08T17:07:37;14.07;;;7.30;;
50086;SDS011;35967;50.718;7.050;2023-04-08T17:17:41;12.70;;;6.33;;
50086;SDS011;35967;50.718;7.050;2023-04-08T17:27:44;11.87;;;6.43;;
50086;SDS011;35967;50.718;7.050;2023-04-08T17:37:49;14.70;;;8.20;;
50086;SDS011;35967;50.718;7.050;2023-04-08T17:47:52;14.67;;;6.87;;
50086;SDS011;35967;50.718;7.050;2023-04-08T17:57:56;13.20;;;6.83;;
50086;SDS011;35967;50.718;7.050;2023-04-08T18:07:59;11.93;;;6.50;;
50086;SDS011;35967;50.718;7.050;2023-04-08T18:18:04;16.97;;;8.07;;
50086;SDS011;35967;50.718;7.050;2023-04-08T18:28:07;20.60;;;9.83;;
50086;SDS011;35967;50.718;7.050;2023-04-08T18:38:11;21.20;;;10.07;;
50086;SDS011;35967;50.718;7.050;2023-04-08T18:48:15;20.07;;;11.00;;
50086;SDS011;35967;50.718;7.050;2023-04-08T18:58:19;22.20;;;11.50;;
50086;SDS011;35967;50.718;7.050;2023-04-08T19:08:23;20.83;;;11.27;;
50086;SDS011;35967;50.718;7.050;2023-04-08T19:18:27;24.40;;;12.03;;
50086;SDS011;35967;50.718;7.050;2023-04-08T19:28:30;23.40;;;13.63;;
50086;SDS011;35967;50.718;7.050;2023-04-08T19:38:35;21.00;;;13.43;;
50086;SDS011;35967;50.718;7.050;2023-04-08T19:48:38;26.33;;;16.13;;
50086;SDS011;35967;50.718;7.050;2023-04-08T19:58:43;23.33;;;15.67;;
50086;SDS011;35967;50.718;7.050;2023-04-08T20:08:46;22.77;;;16.20;;
50086;SDS011;35967;50.718;7.050;2023-04-08T20:18:52;26.43;;;16.50;;
50086;SDS011;35967;50.718;7.050;2023-04-08T20:28:55;26.90;;;18.43;;
50086;SDS011;35967;50.718;7.050;2023-04-08T20:39:01;28.27;;;18.87;;
50086;SDS011;35967;50.718;7.050;2023-04-08T20:49:05;29.20;;;18.53;;
50086;SDS011;35967;50.718;7.050;2023-04-08T20:59:09;31.50;;;18.97;;
50086;SDS011;35967;50.718;7.050;2023-04-08T21:09:13;29.10;;;19.53;;
50086;SDS011;35967;50.718;7.050;2023-04-08T21:19:17;36.10;;;20.37;;
50086;SDS011;35967;50.718;7.050;2023-04-08T21:29:20;29.37;;;18.43;;
50086;SDS011;35967;50.718;7.050;2023-04-08T21:39:25;27.23;;;18.20;;
50086;SDS011;35967;50.718;7.050;2023-04-08T21:49:28;31.17;;;17.90;;
50086;SDS011;35967;50.718;7.050;2023-04-08T21:59:34;31.93;;;18.63;;
50086;SDS011;35967;50.718;7.050;2023-04-08T22:09:37;28.63;;;17.73;;
50086;SDS011;35967;50.718;7.050;2023-04-08T22:19:42;26.13;;;17.00;;
50086;SDS011;35967;50.718;7.050;2023-04-08T22:29:45;34.97;;;21.37;;
50086;SDS011;35967;50.718;7.050;2023-04-08T22:39:49;31.73;;;20.23;;
50086;SDS011;35967;50.718;7.050;2023-04-08T22:49:52;35.73;;;21.50;;
50086;SDS011;35967;50.718;7.050;2023-04-08T22:59:57;32.23;;;22.40;;
50086;SDS011;35967;50.718;7.050;2023-04-08T23:10:02;40.43;;;25.20;;
50086;SDS011;35967;50.718;7.050;2023-04-08T23:20:07;38.57;;;25.27;;
50086;SDS011;35967;50.718;7.050;2023-04-08T23:30:11;40.27;;;25.40;;
50086;SDS011;35967;50.718;7.050;2023-04-08T23:40:15;43.20;;;26.87;;
